Time,TemperatureF,DewpointF,PressureIn,WindDirection,WindDirectionDegrees,WindSpeedMPH,WindSpeedGustMPH,Humidity,HourlyPrecipIn,Conditions,Clouds,dailyrainin,SoftwareType,DateUTC
2013-02-09 00:01:00,27.0,22.0,-100.00,SE,146,3.0,4.0,82,-99.99,,,-99.99,,2013-02-09 07:01:00,
2013-02-09 00:11:00,27.0,22.0,-100.00,SE,130,6.0,7.0,81,-99.99,,,-99.99,,2013-02-09 07:11:00,
2013-02-09 00:21:00,27.0,22.0,-100.00,SE,125,9.0,10.0,80,-99.99,,,-99.99,,2013-02-09 07:21:00,
2013-02-09 00:31:00,27.0,22.0,-100.00,SE,125,9.0,10.0,80,-99.99,,,-99.99,,2013-02-09 07:31:00,
2013-02-09 00:42:00,26.0,22.0,-100.00,SE,145,5.0,5.0,82,-99.99,,,-99.99,,2013-02-09 07:42:00,
2013-02-09 00:51:00,26.0,21.0,-100.00,SE,136,6.0,6.0,83,-99.99,,,-99.99,,2013-02-09 07:51:00,
2013-02-09 01:01:00,26.0,21.0,-100.00,SSE,148,5.0,6.0,81,-99.99,,,-99.99,,2013-02-09 08:01:00,
2013-02-09 01:11:00,25.0,20.0,-100.00,SE,144,4.0,5.0,83,-99.99,,,-99.99,,2013-02-09 08:11:00,
2013-02-09 01:21:00,24.0,20.0,-100.00,SE,128,7.0,7.0,84,-99.99,,,-99.99,,2013-02-09 08:21:00,
2013-02-09 01:31:00,24.0,20.0,-100.00,SE,136,6.0,7.0,85,-99.99,,,-99.99,,2013-02-09 08:31:00,
2013-02-09 01:41:00,25.0,21.0,-100.00,SE,134,7.0,9.0,85,-99.99,,,-99.99,,2013-02-09 08:41:00,
2013-02-09 01:51:00,26.0,21.0,-100.00,SSE,152,9.0,12.0,83,-99.99,,,-99.99,,2013-02-09 08:51:00,
2013-02-09 02:02:00,25.0,21.0,-100.00,SSE,153,6.0,9.0,83,-99.99,,,-99.99,,2013-02-09 09:02:00,
2013-02-09 02:11:00,24.0,20.0,-100.00,South,176,3.0,4.0,85,-99.99,,,-99.99,,2013-02-09 09:11:00,
2013-02-09 02:21:00,24.0,21.0,-100.00,ESE,117,2.0,3.0,86,-99.99,,,-99.99,,2013-02-09 09:21:00,
2013-02-09 02:31:00,24.0,21.0,-100.00,ESE,112,3.0,4.0,88,-99.99,,,-99.99,,2013-02-09 09:31:00,
2013-02-09 02:41:00,25.0,22.0,-100.00,NNE,29,1.0,2.0,88,-99.99,,,-99.99,,2013-02-09 09:41:00,
2013-02-09 02:51:00,25.0,22.0,-100.00,NNE,29,1.0,2.0,88,-99.99,,,-99.99,,2013-02-09 09:51:00,
2013-02-09 03:01:00,25.0,22.0,-100.00,ESE,117,1.0,4.0,87,-99.99,,,-99.99,,2013-02-09 10:01:00,
2013-02-09 03:11:00,25.0,22.0,-100.00,SSE,155,3.0,4.0,87,-99.99,,,-99.99,,2013-02-09 10:11:00,
2013-02-09 03:21:00,25.0,22.0,-100.00,SSE,155,3.0,4.0,87,-99.99,,,-99.99,,2013-02-09 10:21:00,
2013-02-09 03:31:00,25.0,22.0,-100.00,SSE,155,3.0,4.0,87,-99.99,,,-99.99,,2013-02-09 10:31:00,
2013-02-09 03:41:00,25.0,22.0,-100.00,SSE,155,3.0,4.0,87,-99.99,,,-99.99,,2013-02-09 10:41:00,
2013-02-09 03:51:00,25.0,22.0,-100.00,SE,144,6.0,6.0,86,-99.99,,,-99.99,,2013-02-09 10:51:00,
2013-02-09 04:01:00,25.0,22.0,-100.00,SE,144,6.0,6.0,86,-99.99,,,-99.99,,2013-02-09 11:01:00,
2013-02-09 04:11:00,25.0,22.0,-100.00,SE,144,6.0,6.0,86,-99.99,,,-99.99,,2013-02-09 11:11:00,
2013-02-09 04:21:00,25.0,21.0,-100.00,ENE,68,2.0,3.0,83,-99.99,,,-99.99,,2013-02-09 11:21:00,
2013-02-09 04:31:00,26.0,21.0,-100.00,East,95,3.0,5.0,80,-99.99,,,-99.99,,2013-02-09 11:31:00,
2013-02-09 04:41:00,27.0,20.0,-100.00,ENE,57,3.0,4.0,75,-99.99,,,-99.99,,2013-02-09 11:41:00,
2013-02-09 04:52:00,25.0,19.0,-100.00,NNW,347,1.0,3.0,78,-99.99,,,-99.99,,2013-02-09 11:52:00,
2013-02-09 05:02:00,25.0,20.0,-100.00,East,83,2.0,2.0,80,-99.99,,,-99.99,,2013-02-09 12:02:00,
2013-02-09 05:11:00,27.0,21.0,-100.00,ENE,60,3.0,3.0,77,-99.99,,,-99.99,,2013-02-09 12:11:00,
2013-02-09 05:21:00,27.0,21.0,-100.00,ENE,60,3.0,3.0,77,-99.99,,,-99.99,,2013-02-09 12:21:00,
2013-02-09 05:32:00,25.0,19.0,-100.00,SSE,156,4.0,4.0,79,-99.99,,,-99.99,,2013-02-09 12:32:00,
2013-02-09 05:41:00,25.0,20.0,-100.00,SSE,148,5.0,6.0,83,-99.99,,,-99.99,,2013-02-09 12:41:00,
2013-02-09 05:52:00,25.0,21.0,-100.00,SSE,158,5.0,5.0,83,-99.99,,,-99.99,,2013-02-09 12:52:00,
2013-02-09 06:01:00,25.0,21.0,-100.00,SSE,153,4.0,4.0,85,-99.99,,,-99.99,,2013-02-09 13:01:00,
2013-02-09 06:11:00,24.0,21.0,-100.00,SSE,157,5.0,5.0,87,-99.99,,,-99.99,,2013-02-09 13:11:00,
2013-02-09 06:21:00,24.0,21.0,-100.00,SE,144,4.0,5.0,88,-99.99,,,-99.99,,2013-02-09 13:21:00,
2013-02-09 06:31:00,25.0,23.0,-100.00,SSE,168,5.0,6.0,91,-99.99,,,-99.99,,2013-02-09 13:31:00,
2013-02-09 06:42:00,24.0,22.0,-100.00,South,174,4.0,5.0,91,-99.99,,,-99.99,,2013-02-09 13:42:00,
2013-02-09 06:51:00,24.0,22.0,-100.00,South,169,4.0,5.0,92,-99.99,,,-99.99,,2013-02-09 13:51:00,
2013-02-09 07:01:00,24.0,22.0,-100.00,SE,139,4.0,5.0,93,-99.99,,,-99.99,,2013-02-09 14:01:00,
2013-02-09 07:11:00,24.0,23.0,-100.00,SSE,158,5.0,5.0,93,-99.99,,,-99.99,,2013-02-09 14:11:00,
2013-02-09 07:21:00,24.0,22.0,-100.00,SE,127,6.0,6.0,93,-99.99,,,-99.99,,2013-02-09 14:21:00,
2013-02-09 07:31:00,24.0,22.0,-100.00,SSE,152,4.0,6.0,93,-99.99,,,-99.99,,2013-02-09 14:31:00,
2013-02-09 07:41:00,24.0,22.0,-100.00,SSE,165,7.0,7.0,93,-99.99,,,-99.99,,2013-02-09 14:41:00,
2013-02-09 07:52:00,24.0,22.0,-100.00,SE,144,7.0,7.0,93,-99.99,,,-99.99,,2013-02-09 14:52:00,
2013-02-09 08:01:00,24.0,22.0,-100.00,SSE,151,6.0,7.0,93,-99.99,,,-99.99,,2013-02-09 15:01:00,
2013-02-09 08:11:00,24.0,23.0,-100.00,SSE,154,6.0,7.0,93,-99.99,,,-99.99,,2013-02-09 15:11:00,
2013-02-09 08:21:00,24.0,22.0,-100.00,SSE,153,5.0,7.0,94,-99.99,,,-99.99,,2013-02-09 15:21:00,
2013-02-09 08:31:00,24.0,22.0,-100.00,SSE,151,6.0,6.0,94,-99.99,,,-99.99,,2013-02-09 15:31:00,
2013-02-09 08:41:00,24.0,22.0,-100.00,SSE,155,4.0,5.0,94,-99.99,,,-99.99,,2013-02-09 15:41:00,
2013-02-09 08:51:00,24.0,23.0,-100.00,SSE,150,5.0,6.0,94,-99.99,,,-99.99,,2013-02-09 15:51:00,
2013-02-09 09:01:00,25.0,23.0,-100.00,SSE,164,4.0,6.0,93,-99.99,,,-99.99,,2013-02-09 16:01:00,
2013-02-09 09:11:00,25.0,23.0,-100.00,SSE,155,4.0,5.0,94,-99.99,,,-99.99,,2013-02-09 16:11:00,
2013-02-09 09:21:00,25.0,23.0,-100.00,SSE,157,5.0,6.0,93,-99.99,,,-99.99,,2013-02-09 16:21:00,
2013-02-09 09:31:00,25.0,23.0,-100.00,SE,146,6.0,7.0,93,-99.99,,,-99.99,,2013-02-09 16:31:00,
2013-02-09 09:41:00,26.0,25.0,-100.00,SSE,153,5.0,7.0,92,-99.99,,,-99.99,,2013-02-09 16:41:00,
2013-02-09 09:51:00,26.0,24.0,-100.00,SE,145,7.0,8.0,91,-99.99,,,-99.99,,2013-02-09 16:51:00,
2013-02-09 10:01:00,26.0,24.0,-100.00,South,176,6.0,8.0,91,-99.99,,,-99.99,,2013-02-09 17:01:00,
2013-02-09 10:11:00,26.0,24.0,-100.00,South,184,7.0,7.0,90,-99.99,,,-99.99,,2013-02-09 17:11:00,
2013-02-09 10:21:00,27.0,24.0,-100.00,SSE,155,7.0,9.0,88,-99.99,,,-99.99,,2013-02-09 17:21:00,
2013-02-09 10:32:00,27.0,24.0,-100.00,SSE,153,8.0,8.0,87,-99.99,,,-99.99,,2013-02-09 17:32:00,
2013-02-09 10:41:00,27.0,23.0,-100.00,SSE,154,7.0,7.0,85,-99.99,,,-99.99,,2013-02-09 17:41:00,
2013-02-09 10:52:00,27.0,23.0,-100.00,SSE,157,7.0,9.0,84,-99.99,,,-99.99,,2013-02-09 17:52:00,
2013-02-09 11:01:00,27.0,23.0,-100.00,SSE,160,7.0,9.0,85,-99.99,,,-99.99,,2013-02-09 18:01:00,
2013-02-09 11:11:00,27.0,23.0,-100.00,SSE,160,7.0,9.0,85,-99.99,,,-99.99,,2013-02-09 18:11:00,
2013-02-09 11:22:00,26.0,23.0,-100.00,SE,143,10.0,12.0,87,-99.99,,,-99.99,,2013-02-09 18:22:00,
2013-02-09 11:31:00,26.0,23.0,-100.00,SE,146,11.0,12.0,87,-99.99,,,-99.99,,2013-02-09 18:31:00,
2013-02-09 11:41:00,26.0,23.0,-100.00,SE,146,11.0,12.0,87,-99.99,,,-99.99,,2013-02-09 18:41:00,
2013-02-09 11:51:00,27.0,24.0,-100.00,SSE,156,8.0,11.0,87,-99.99,,,-99.99,,2013-02-09 18:51:00,
2013-02-09 12:01:00,28.0,24.0,-100.00,South,177,10.0,14.0,87,-99.99,,,-99.99,,2013-02-09 19:01:00,
2013-02-09 12:11:00,28.0,24.0,-100.00,South,183,12.0,14.0,86,-99.99,,,-99.99,,2013-02-09 19:11:00,
2013-02-09 12:22:00,28.0,24.0,-100.00,South,183,11.0,14.0,85,-99.99,,,-99.99,,2013-02-09 19:22:00,
2013-02-09 12:31:00,29.0,25.0,-100.00,South,187,11.0,13.0,85,-99.99,,,-99.99,,2013-02-09 19:31:00,
2013-02-09 12:41:00,28.0,24.0,-100.00,South,181,11.0,14.0,84,-99.99,,,-99.99,,2013-02-09 19:41:00,
2013-02-09 12:52:00,28.0,24.0,-100.00,South,185,10.0,13.0,83,-99.99,,,-99.99,,2013-02-09 19:52:00,
2013-02-09 13:01:00,29.0,24.0,-100.00,SSW,197,8.0,11.0,82,-99.99,,,-99.99,,2013-02-09 20:01:00,
2013-02-09 13:11:00,29.0,24.0,-100.00,SSW,192,9.0,11.0,82,-99.99,,,-99.99,,2013-02-09 20:11:00,
2013-02-09 13:21:00,29.0,24.0,-100.00,South,190,8.0,13.0,82,-99.99,,,-99.99,,2013-02-09 20:21:00,
2013-02-09 13:31:00,29.0,24.0,-100.00,South,185,11.0,13.0,82,-99.99,,,-99.99,,2013-02-09 20:31:00,
2013-02-09 13:41:00,29.0,24.0,-100.00,South,185,10.0,13.0,82,-99.99,,,-99.99,,2013-02-09 20:41:00,
2013-02-09 13:52:00,29.0,25.0,-100.00,South,185,11.0,13.0,82,-99.99,,,-99.99,,2013-02-09 20:52:00,
2013-02-09 14:01:00,29.0,25.0,-100.00,South,189,8.0,14.0,84,-99.99,,,-99.99,,2013-02-09 21:01:00,
2013-02-09 14:11:00,29.0,25.0,-100.00,South,189,8.0,14.0,84,-99.99,,,-99.99,,2013-02-09 21:11:00,
2013-02-09 14:21:00,30.0,25.0,-100.00,South,177,11.0,15.0,80,-99.99,,,-99.99,,2013-02-09 21:21:00,
2013-02-09 14:31:00,31.0,25.0,-100.00,SSE,167,14.0,17.0,77,-99.99,,,-99.99,,2013-02-09 21:31:00,
2013-02-09 14:41:00,31.0,25.0,-100.00,SSE,167,14.0,17.0,77,-99.99,,,-99.99,,2013-02-09 21:41:00,
2013-02-09 14:52:00,31.0,24.0,-100.00,SSE,166,15.0,17.0,75,-99.99,,,-99.99,,2013-02-09 21:52:00,
2013-02-09 15:01:00,31.0,24.0,-100.00,SSE,165,14.0,16.0,74,-99.99,,,-99.99,,2013-02-09 22:01:00,
2013-02-09 15:11:00,31.0,25.0,-100.00,South,175,12.0,15.0,76,-99.99,,,-99.99,,2013-02-09 22:11:00,
2013-02-09 15:21:00,31.0,24.0,-100.00,South,173,14.0,16.0,77,-99.99,,,-99.99,,2013-02-09 22:21:00,
2013-02-09 15:31:00,31.0,25.0,-100.00,South,175,12.0,14.0,78,-99.99,,,-99.99,,2013-02-09 22:31:00,
2013-02-09 15:41:00,31.0,26.0,-100.00,South,171,14.0,16.0,80,-99.99,,,-99.99,,2013-02-09 22:41:00,
2013-02-09 15:51:00,31.0,25.0,-100.00,South,173,14.0,16.0,77,-99.99,,,-99.99,,2013-02-09 22:51:00,
2013-02-09 16:01:00,31.0,25.0,-100.00,South,170,13.0,16.0,78,-99.99,,,-99.99,,2013-02-09 23:01:00,
2013-02-09 16:11:00,30.0,25.0,-100.00,South,176,11.0,14.0,79,-99.99,,,-99.99,,2013-02-09 23:11:00,
2013-02-09 16:21:00,30.0,25.0,-100.00,South,176,11.0,14.0,79,-99.99,,,-99.99,,2013-02-09 23:21:00,
2013-02-09 16:31:00,30.0,23.0,-100.00,South,172,12.0,15.0,74,-99.99,,,-99.99,,2013-02-09 23:31:00,
2013-02-09 16:41:00,29.0,24.0,-100.00,South,173,12.0,16.0,81,-99.99,,,-99.99,,2013-02-09 23:41:00,
2013-02-09 16:52:00,29.0,24.0,-100.00,South,181,13.0,16.0,83,-99.99,,,-99.99,,2013-02-09 23:52:00,
2013-02-09 17:02:00,27.0,24.0,-100.00,SSW,199,11.0,15.0,87,-99.99,,,-99.99,,2013-02-10 00:02:00,
2013-02-09 17:11:00,27.0,24.0,-100.00,SSW,202,10.0,14.0,89,-99.99,,,-99.99,,2013-02-10 00:11:00,
2013-02-09 17:21:00,27.0,24.0,-100.00,South,191,9.0,11.0,88,-99.99,,,-99.99,,2013-02-10 00:21:00,
2013-02-09 17:32:00,27.0,24.0,-100.00,SSW,205,10.0,11.0,88,-99.99,,,-99.99,,2013-02-10 00:32:00,
2013-02-09 17:41:00,27.0,24.0,-100.00,South,181,9.0,11.0,88,-99.99,,,-99.99,,2013-02-10 00:41:00,
2013-02-09 17:51:00,27.0,24.0,-100.00,South,174,10.0,13.0,87,-99.99,,,-99.99,,2013-02-10 00:51:00,
2013-02-09 18:01:00,27.0,24.0,-100.00,South,180,6.0,7.0,85,-99.99,,,-99.99,,2013-02-10 01:01:00,
2013-02-09 18:11:00,27.0,24.0,-100.00,South,180,6.0,7.0,85,-99.99,,,-99.99,,2013-02-10 01:11:00,
2013-02-09 18:21:00,26.0,23.0,-100.00,South,187,4.0,5.0,88,-99.99,,,-99.99,,2013-02-10 01:21:00,
2013-02-09 18:31:00,26.0,23.0,-100.00,South,187,4.0,5.0,88,-99.99,,,-99.99,,2013-02-10 01:31:00,
2013-02-09 18:41:00,26.0,24.0,-100.00,SSW,199,5.0,6.0,90,-99.99,,,-99.99,,2013-02-10 01:41:00,
2013-02-09 18:51:00,26.0,24.0,-100.00,South,173,6.0,8.0,91,-99.99,,,-99.99,,2013-02-10 01:51:00,
2013-02-09 19:01:00,26.0,24.0,-100.00,SSE,159,6.0,8.0,92,-99.99,,,-99.99,,2013-02-10 02:01:00,
2013-02-09 19:11:00,26.0,24.0,-100.00,SSE,150,7.0,8.0,93,-99.99,,,-99.99,,2013-02-10 02:11:00,
2013-02-09 19:21:00,26.0,24.0,-100.00,South,171,6.0,7.0,93,-99.99,,,-99.99,,2013-02-10 02:21:00,
2013-02-09 19:31:00,26.0,24.0,-100.00,South,171,6.0,7.0,93,-99.99,,,-99.99,,2013-02-10 02:31:00,
2013-02-09 19:41:00,26.0,24.0,-100.00,South,171,6.0,7.0,93,-99.99,,,-99.99,,2013-02-10 02:41:00,
2013-02-09 19:52:00,26.0,24.0,-100.00,South,171,6.0,7.0,93,-99.99,,,-99.99,,2013-02-10 02:52:00,
2013-02-09 20:21:00,25.0,24.0,-100.00,South,184,5.0,9.0,94,-99.99,,,-99.99,,2013-02-10 03:21:00,
2013-02-09 20:32:00,25.0,24.0,-100.00,SSW,208,5.0,7.0,94,-99.99,,,-99.99,,2013-02-10 03:32:00,
2013-02-09 20:41:00,25.0,24.0,-100.00,South,186,5.0,6.0,94,-99.99,,,-99.99,,2013-02-10 03:41:00,
2013-02-09 20:51:00,25.0,23.0,-100.00,South,171,6.0,7.0,94,-99.99,,,-99.99,,2013-02-10 03:51:00,
2013-02-09 21:01:00,25.0,23.0,-100.00,SSE,157,5.0,7.0,94,-99.99,,,-99.99,,2013-02-10 04:01:00,
2013-02-09 21:11:00,25.0,23.0,-100.00,South,171,6.0,7.0,94,-99.99,,,-99.99,,2013-02-10 04:11:00,
2013-02-09 21:21:00,25.0,23.0,-100.00,SSW,192,5.0,6.0,94,-99.99,,,-99.99,,2013-02-10 04:21:00,
2013-02-09 21:32:00,25.0,23.0,-100.00,SSE,165,5.0,6.0,94,-99.99,,,-99.99,,2013-02-10 04:32:00,
2013-02-09 21:41:00,25.0,23.0,-100.00,South,175,4.0,7.0,94,-99.99,,,-99.99,,2013-02-10 04:41:00,
2013-02-09 21:51:00,25.0,23.0,-100.00,SSE,168,4.0,6.0,94,-99.99,,,-99.99,,2013-02-10 04:51:00,
2013-02-09 22:01:00,24.0,23.0,-100.00,SSE,159,4.0,5.0,94,-99.99,,,-99.99,,2013-02-10 05:01:00,
2013-02-09 22:11:00,25.0,23.0,-100.00,SSE,162,4.0,5.0,94,-99.99,,,-99.99,,2013-02-10 05:11:00,
2013-02-09 22:22:00,25.0,23.0,-100.00,South,174,2.0,4.0,94,-99.99,,,-99.99,,2013-02-10 05:22:00,
2013-02-09 22:31:00,25.0,23.0,-100.00,SSE,150,6.0,7.0,94,-99.99,,,-99.99,,2013-02-10 05:31:00,
2013-02-09 22:41:00,25.0,23.0,-100.00,SSE,150,6.0,7.0,94,-99.99,,,-99.99,,2013-02-10 05:41:00,
2013-02-09 22:52:00,25.0,23.0,-100.00,South,169,5.0,6.0,94,-99.99,,,-99.99,,2013-02-10 05:52:00,
2013-02-09 23:01:00,24.0,23.0,-100.00,SE,146,5.0,7.0,94,-99.99,,,-99.99,,2013-02-10 06:01:00,
2013-02-09 23:11:00,25.0,23.0,-100.00,SSE,152,5.0,6.0,94,-99.99,,,-99.99,,2013-02-10 06:11:00,
2013-02-09 23:21:00,24.0,23.0,-100.00,SSE,151,5.0,7.0,94,-99.99,,,-99.99,,2013-02-10 06:21:00,
2013-02-09 23:32:00,25.0,23.0,-100.00,SE,138,5.0,6.0,94,-99.99,,,-99.99,,2013-02-10 06:32:00,
2013-02-09 23:42:00,25.0,23.0,-100.00,NW,325,7.0,9.0,94,-99.99,,,-99.99,,2013-02-10 06:42:00,
2013-02-09 23:51:00,24.0,23.0,-100.00,North,8,4.0,7.0,94,-99.99,,,-99.99,,2013-02-10 06:51:00,